Terminal Aerodrome Forecast
Issued by NWS

Home | Current Version | Previous Version | Text Only | Print | Product List | Glossary On
Versions: 1 2 3 4 5 6 7 8 9 10 11 12 13 14 15 16 17 18 19
000
FTUS45 KPIH 252327
TAFSUN
TAF
KSUN 252327Z 2600/2706 13012KT 1/2SM SN FG BKN007 OVC010
     FM260200 14012KT 1/2SM SN OVC005
     FM260900 VRB05KT 1SM -SN BR SCT005 OVC010
     FM261500 31008KT P6SM SCT010 BKN030
      AMD LTD TO CLD VIS AND WIND 2606/2614=

USA.gov is the U.S. government's official web portal to all federal, state and local government web resources and services.